sensor_id;sensor_type;location;lat;lon;timestamp;pressure;altitude;pressure_sealevel;temperature;humidity
77739;BME280;66904;59.926;30.404;2023-12-20T00:04:48;98596.84;;;3.07;71.54
77739;BME280;66904;59.926;30.404;2023-12-20T00:09:59;98598.50;;;3.08;71.19
77739;BME280;66904;59.926;30.404;2023-12-20T00:15:09;98597.44;;;3.10;71.22
77739;BME280;66904;59.926;30.404;2023-12-20T00:20:20;98586.50;;;3.17;71.58
77739;BME280;66904;59.926;30.404;2023-12-20T00:25:31;98596.38;;;3.24;71.00
77739;BME280;66904;59.926;30.404;2023-12-20T00:30:42;98577.84;;;3.16;71.08
77739;BME280;66904;59.926;30.404;2023-12-20T00:35:53;98551.13;;;3.24;70.99
77739;BME280;66904;59.926;30.404;2023-12-20T00:41:03;98544.22;;;3.23;71.34
77739;BME280;66904;59.926;30.404;2023-12-20T00:46:14;98550.38;;;3.22;70.78
77739;BME280;66904;59.926;30.404;2023-12-20T00:51:25;98542.69;;;3.20;70.86
77739;BME280;66904;59.926;30.404;2023-12-20T00:56:36;98550.78;;;3.17;70.76
77739;BME280;66904;59.926;30.404;2023-12-20T01:01:47;98546.38;;;3.18;70.86
77739;BME280;66904;59.926;30.404;2023-12-20T01:06:57;98535.81;;;3.19;70.61
77739;BME280;66904;59.926;30.404;2023-12-20T01:12:08;98531.91;;;3.25;70.94
77739;BME280;66904;59.926;30.404;2023-12-20T01:17:19;98518.84;;;3.25;70.72
77739;BME280;66904;59.926;30.404;2023-12-20T01:22:30;98540.06;;;3.31;70.53
77739;BME280;66904;59.926;30.404;2023-12-20T01:27:41;98550.03;;;3.37;70.03
77739;BME280;66904;59.926;30.404;2023-12-20T01:32:51;98547.66;;;3.34;70.14
77739;BME280;66904;59.926;30.404;2023-12-20T01:38:02;98538.25;;;3.32;70.17
77739;BME280;66904;59.926;30.404;2023-12-20T01:43:13;98538.41;;;3.30;69.54
77739;BME280;66904;59.926;30.404;2023-12-20T01:48:24;98514.16;;;3.28;69.52
77739;BME280;66904;59.926;30.404;2023-12-20T01:53:36;98520.59;;;3.24;69.45
77739;BME280;66904;59.926;30.404;2023-12-20T01:58:47;98519.53;;;3.16;70.09
77739;BME280;66904;59.926;30.404;2023-12-20T02:03:59;98510.41;;;3.21;69.95
77739;BME280;66904;59.926;30.404;2023-12-20T02:09:11;98518.00;;;3.24;69.40
77739;BME280;66904;59.926;30.404;2023-12-20T02:14:22;98526.53;;;3.26;68.84
77739;BME280;66904;59.926;30.404;2023-12-20T02:19:32;98498.63;;;3.16;69.87
77739;BME280;66904;59.926;30.404;2023-12-20T02:24:43;98498.53;;;3.17;69.54
77739;BME280;66904;59.926;30.404;2023-12-20T02:29:54;98511.59;;;3.17;68.95
77739;BME280;66904;59.926;30.404;2023-12-20T02:35:05;98516.56;;;3.20;68.75
77739;BME280;66904;59.926;30.404;2023-12-20T02:40:16;98520.97;;;3.20;69.46
77739;BME280;66904;59.926;30.404;2023-12-20T02:45:27;98510.50;;;3.20;69.13
77739;BME280;66904;59.926;30.404;2023-12-20T02:50:38;98489.41;;;3.11;69.41
77739;BME280;66904;59.926;30.404;2023-12-20T02:55:49;98491.03;;;3.12;69.23
77739;BME280;66904;59.926;30.404;2023-12-20T03:01:00;98509.94;;;3.05;69.31
77739;BME280;66904;59.926;30.404;2023-12-20T03:06:17;98502.34;;;3.02;69.28
77739;BME280;66904;59.926;30.404;2023-12-20T03:11:28;98507.31;;;3.05;69.56
77739;BME280;66904;59.926;30.404;2023-12-20T03:16:39;98509.72;;;3.08;69.03
77739;BME280;66904;59.926;30.404;2023-12-20T03:21:50;98507.09;;;3.08;69.52
77739;BME280;66904;59.926;30.404;2023-12-20T03:27:00;98506.13;;;3.09;69.31
77739;BME280;66904;59.926;30.404;2023-12-20T03:32:11;98501.50;;;3.12;68.96
77739;BME280;66904;59.926;30.404;2023-12-20T03:37:23;98511.84;;;3.14;69.44
77739;BME280;66904;59.926;30.404;2023-12-20T03:42:34;98512.28;;;3.19;68.96
77739;BME280;66904;59.926;30.404;2023-12-20T03:47:44;98499.94;;;3.21;69.29
77739;BME280;66904;59.926;30.404;2023-12-20T03:52:55;98501.00;;;3.30;69.49
77739;BME280;66904;59.926;30.404;2023-12-20T03:58:06;98501.56;;;3.33;69.57
77739;BME280;66904;59.926;30.404;2023-12-20T04:03:17;98482.34;;;3.34;69.17
77739;BME280;66904;59.926;30.404;2023-12-20T04:08:27;98499.19;;;3.41;68.89
77739;BME280;66904;59.926;30.404;2023-12-20T04:13:38;98500.81;;;3.42;69.23
77739;BME280;66904;59.926;30.404;2023-12-20T04:18:49;98505.56;;;3.48;68.88
77739;BME280;66904;59.926;30.404;2023-12-20T04:24:00;98505.69;;;3.47;68.00
77739;BME280;66904;59.926;30.404;2023-12-20T04:29:11;98502.50;;;3.43;68.18
77739;BME280;66904;59.926;30.404;2023-12-20T04:34:23;98507.47;;;3.46;68.85
77739;BME280;66904;59.926;30.404;2023-12-20T04:39:33;98504.63;;;3.49;68.29
77739;BME280;66904;59.926;30.404;2023-12-20T04:44:44;98507.81;;;3.53;68.18
77739;BME280;66904;59.926;30.404;2023-12-20T04:49:55;98506.53;;;3.47;68.01
77739;BME280;66904;59.926;30.404;2023-12-20T04:55:07;98490.28;;;3.44;68.01
77739;BME280;66904;59.926;30.404;2023-12-20T05:06:42;98517.00;;;3.47;67.78
77739;BME280;66904;59.926;30.404;2023-12-20T05:11:53;98532.66;;;3.47;67.68
77739;BME280;66904;59.926;30.404;2023-12-20T05:17:04;98534.19;;;3.50;67.74
77739;BME280;66904;59.926;30.404;2023-12-20T05:22:14;98525.31;;;3.41;67.30
77739;BME280;66904;59.926;30.404;2023-12-20T05:27:25;98520.53;;;3.57;66.73
77739;BME280;66904;59.926;30.404;2023-12-20T05:32:36;98520.63;;;3.56;66.91
77739;BME280;66904;59.926;30.404;2023-12-20T05:37:47;98516.34;;;3.55;67.17
77739;BME280;66904;59.926;30.404;2023-12-20T05:42:58;98511.00;;;3.56;67.44
77739;BME280;66904;59.926;30.404;2023-12-20T05:48:09;98516.34;;;3.55;67.03
77739;BME280;66904;59.926;30.404;2023-12-20T05:53:19;98527.63;;;3.55;67.06
77739;BME280;66904;59.926;30.404;2023-12-20T05:58:31;98518.59;;;3.59;67.09
77739;BME280;66904;59.926;30.404;2023-12-20T06:03:43;98527.28;;;3.60;67.32
77739;BME280;66904;59.926;30.404;2023-12-20T06:08:54;98532.25;;;3.63;67.25
77739;BME280;66904;59.926;30.404;2023-12-20T06:14:05;98525.00;;;3.67;67.48
77739;BME280;66904;59.926;30.404;2023-12-20T06:19:15;98524.16;;;3.66;67.02
77739;BME280;66904;59.926;30.404;2023-12-20T06:24:26;98534.88;;;3.63;66.93
77739;BME280;66904;59.926;30.404;2023-12-20T06:29:38;98546.41;;;3.60;67.05
77739;BME280;66904;59.926;30.404;2023-12-20T06:34:51;98544.38;;;3.64;66.29
77739;BME280;66904;59.926;30.404;2023-12-20T06:40:02;98534.88;;;3.63;66.43
77739;BME280;66904;59.926;30.404;2023-12-20T06:45:14;98547.25;;;3.61;66.90
77739;BME280;66904;59.926;30.404;2023-12-20T06:50:29;98540.47;;;3.58;67.16
77739;BME280;66904;59.926;30.404;2023-12-20T06:55:40;98539.75;;;3.56;66.27
77739;BME280;66904;59.926;30.404;2023-12-20T07:00:51;98551.16;;;3.55;67.00
77739;BME280;66904;59.926;30.404;2023-12-20T07:06:04;98544.50;;;3.62;66.69
77739;BME280;66904;59.926;30.404;2023-12-20T07:11:15;98554.34;;;3.59;66.90
77739;BME280;66904;59.926;30.404;2023-12-20T07:16:26;98563.63;;;3.63;66.83
77739;BME280;66904;59.926;30.404;2023-12-20T07:21:37;98577.97;;;3.69;66.22
77739;BME280;66904;59.926;30.404;2023-12-20T07:26:47;98590.34;;;3.67;66.33
77739;BME280;66904;59.926;30.404;2023-12-20T07:31:59;98600.81;;;3.67;66.54
77739;BME280;66904;59.926;30.404;2023-12-20T07:37:09;98595.34;;;3.70;66.54
77739;BME280;66904;59.926;30.404;2023-12-20T07:42:25;98604.47;;;3.75;66.18
77739;BME280;66904;59.926;30.404;2023-12-20T07:47:35;98595.59;;;3.67;66.23
77739;BME280;66904;59.926;30.404;2023-12-20T07:52:46;98596.66;;;3.64;66.38
77739;BME280;66904;59.926;30.404;2023-12-20T07:57:57;98604.84;;;3.71;65.92
77739;BME280;66904;59.926;30.404;2023-12-20T08:03:08;98621.22;;;3.73;66.16
77739;BME280;66904;59.926;30.404;2023-12-20T08:08:19;98626.59;;;3.71;66.32
77739;BME280;66904;59.926;30.404;2023-12-20T08:13:30;98626.72;;;3.70;66.08
77739;BME280;66904;59.926;30.404;2023-12-20T08:18:40;98635.25;;;3.72;66.23
77739;BME280;66904;59.926;30.404;2023-12-20T08:23:51;98640.13;;;3.76;66.47
77739;BME280;66904;59.926;30.404;2023-12-20T08:29:02;98654.03;;;3.77;66.07
77739;BME280;66904;59.926;30.404;2023-12-20T08:34:13;98662.81;;;3.76;66.02
77739;BME280;66904;59.926;30.404;2023-12-20T08:39:25;98675.44;;;3.71;66.00
77739;BME280;66904;59.926;30.404;2023-12-20T08:44:40;98680.53;;;3.72;66.18
77739;BME280;66904;59.926;30.404;2023-12-20T08:49:52;98670.47;;;3.68;65.83
77739;BME280;66904;59.926;30.404;2023-12-20T08:55:07;98679.25;;;3.67;65.83
77739;BME280;66904;59.926;30.404;2023-12-20T09:00:18;98696.34;;;3.71;65.89
77739;BME280;66904;59.926;30.404;2023-12-20T09:05:31;98704.06;;;3.72;65.58
77739;BME280;66904;59.926;30.404;2023-12-20T09:10:42;98706.81;;;3.71;65.63
77739;BME280;66904;59.926;30.404;2023-12-20T09:15:56;98741.50;;;3.73;66.02
77739;BME280;66904;59.926;30.404;2023-12-20T09:21:07;98705.97;;;3.70;66.17
77739;BME280;66904;59.926;30.404;2023-12-20T09:26:17;98728.91;;;3.67;66.45
77739;BME280;66904;59.926;30.404;2023-12-20T09:31:28;98749.69;;;3.79;66.09
77739;BME280;66904;59.926;30.404;2023-12-20T09:36:39;98741.75;;;3.81;66.11
77739;BME280;66904;59.926;30.404;2023-12-20T09:42:01;98751.38;;;3.80;66.00
77739;BME280;66904;59.926;30.404;2023-12-20T09:47:15;98740.31;;;3.77;66.61
77739;BME280;66904;59.926;30.404;2023-12-20T09:52:26;98757.06;;;3.85;66.07
77739;BME280;66904;59.926;30.404;2023-12-20T09:57:37;98780.38;;;3.77;66.42
77739;BME280;66904;59.926;30.404;2023-12-20T10:02:57;98794.84;;;3.81;66.23
77739;BME280;66904;59.926;30.404;2023-12-20T10:08:08;98792.13;;;3.83;66.15
77739;BME280;66904;59.926;30.404;2023-12-20T10:13:19;98799.28;;;3.81;66.29
77739;BME280;66904;59.926;30.404;2023-12-20T10:18:30;98811.25;;;3.72;67.01
77739;BME280;66904;59.926;30.404;2023-12-20T10:23:41;98819.59;;;3.77;66.84
77739;BME280;66904;59.926;30.404;2023-12-20T10:28:59;98825.66;;;3.78;67.20
77739;BME280;66904;59.926;30.404;2023-12-20T10:34:10;98837.28;;;3.85;66.64
77739;BME280;66904;59.926;30.404;2023-12-20T10:39:21;98839.91;;;3.85;67.10
77739;BME280;66904;59.926;30.404;2023-12-20T10:44:33;98846.72;;;3.87;66.83
77739;BME280;66904;59.926;30.404;2023-12-20T10:49:44;98851.72;;;3.90;67.28
77739;BME280;66904;59.926;30.404;2023-12-20T10:54:56;98861.00;;;3.94;67.31
77739;BME280;66904;59.926;30.404;2023-12-20T11:00:08;98862.41;;;3.98;66.95
77739;BME280;66904;59.926;30.404;2023-12-20T11:11:03;98897.84;;;4.02;66.94
77739;BME280;66904;59.926;30.404;2023-12-20T11:16:15;98890.34;;;3.98;67.06
77739;BME280;66904;59.926;30.404;2023-12-20T11:21:29;98903.50;;;3.85;67.08
77739;BME280;66904;59.926;30.404;2023-12-20T11:26:47;98898.88;;;3.89;66.92
77739;BME280;66904;59.926;30.404;2023-12-20T11:32:02;98907.72;;;3.88;67.75
77739;BME280;66904;59.926;30.404;2023-12-20T11:37:14;98907.72;;;3.88;67.29
77739;BME280;66904;59.926;30.404;2023-12-20T11:42:24;98919.56;;;3.92;67.70
77739;BME280;66904;59.926;30.404;2023-12-20T11:47:35;98921.25;;;3.93;67.13
77739;BME280;66904;59.926;30.404;2023-12-20T11:52:51;98934.66;;;3.88;67.49
77739;BME280;66904;59.926;30.404;2023-12-20T11:58:02;98923.41;;;3.88;67.30
77739;BME280;66904;59.926;30.404;2023-12-20T12:03:15;98929.56;;;3.87;67.20
77739;BME280;66904;59.926;30.404;2023-12-20T12:08:26;98934.81;;;3.87;67.19
77739;BME280;66904;59.926;30.404;2023-12-20T12:13:37;98951.56;;;3.84;67.27
77739;BME280;66904;59.926;30.404;2023-12-20T12:18:58;98945.03;;;3.90;67.33
77739;BME280;66904;59.926;30.404;2023-12-20T12:24:09;98960.00;;;3.88;67.13
77739;BME280;66904;59.926;30.404;2023-12-20T12:29:23;98970.47;;;3.88;67.44
77739;BME280;66904;59.926;30.404;2023-12-20T12:34:35;98980.81;;;3.89;67.39
77739;BME280;66904;59.926;30.404;2023-12-20T12:39:46;98979.97;;;3.89;67.40
77739;BME280;66904;59.926;30.404;2023-12-20T12:44:57;99004.47;;;3.88;67.58
77739;BME280;66904;59.926;30.404;2023-12-20T12:50:08;98989.94;;;3.84;67.41
77739;BME280;66904;59.926;30.404;2023-12-20T12:55:20;99003.28;;;3.92;67.54
77739;BME280;66904;59.926;30.404;2023-12-20T13:00:30;99009.72;;;3.88;67.39
77739;BME280;66904;59.926;30.404;2023-12-20T13:05:42;99007.91;;;3.88;67.42
77739;BME280;66904;59.926;30.404;2023-12-20T13:10:52;99019.59;;;3.95;67.56
77739;BME280;66904;59.926;30.404;2023-12-20T13:16:04;99011.97;;;3.92;67.13
77739;BME280;66904;59.926;30.404;2023-12-20T13:21:15;99028.81;;;3.88;67.47
77739;BME280;66904;59.926;30.404;2023-12-20T13:26:26;99040.59;;;3.83;67.61
77739;BME280;66904;59.926;30.404;2023-12-20T13:31:37;99046.44;;;3.86;67.41
77739;BME280;66904;59.926;30.404;2023-12-20T13:36:49;99055.81;;;3.89;67.24
77739;BME280;66904;59.926;30.404;2023-12-20T13:42:01;99058.19;;;3.81;67.65
77739;BME280;66904;59.926;30.404;2023-12-20T13:47:12;99055.41;;;3.71;67.74
77739;BME280;66904;59.926;30.404;2023-12-20T13:52:23;99072.03;;;3.70;67.92
77739;BME280;66904;59.926;30.404;2023-12-20T13:57:35;99068.28;;;3.61;68.12
77739;BME280;66904;59.926;30.404;2023-12-20T14:02:48;99069.69;;;3.54;68.06
77739;BME280;66904;59.926;30.404;2023-12-20T14:08:00;99078.56;;;3.52;67.84
77739;BME280;66904;59.926;30.404;2023-12-20T14:13:10;99080.78;;;3.45;68.29
77739;BME280;66904;59.926;30.404;2023-12-20T14:18:21;99082.38;;;3.48;68.16
77739;BME280;66904;59.926;30.404;2023-12-20T14:23:32;99081.84;;;3.43;68.15
77739;BME280;66904;59.926;30.404;2023-12-20T14:28:44;99079.16;;;3.32;68.08
77739;BME280;66904;59.926;30.404;2023-12-20T14:33:54;99079.03;;;3.33;68.41
77739;BME280;66904;59.926;30.404;2023-12-20T14:39:05;99074.88;;;3.31;68.28
77739;BME280;66904;59.926;30.404;2023-12-20T14:44:16;99077.81;;;3.26;68.56
77739;BME280;66904;59.926;30.404;2023-12-20T14:49:28;99083.88;;;3.27;68.03
77739;BME280;66904;59.926;30.404;2023-12-20T14:54:39;99080.16;;;3.18;68.53
77739;BME280;66904;59.926;30.404;2023-12-20T14:59:50;99096.00;;;3.15;68.28
77739;BME280;66904;59.926;30.404;2023-12-20T15:05:00;99104.59;;;3.17;69.02
77739;BME280;66904;59.926;30.404;2023-12-20T15:10:12;99104.69;;;3.16;69.01
77739;BME280;66904;59.926;30.404;2023-12-20T15:15:22;99108.66;;;3.21;68.40
77739;BME280;66904;59.926;30.404;2023-12-20T15:20:34;99112.94;;;3.22;68.80
77739;BME280;66904;59.926;30.404;2023-12-20T15:25:47;99097.69;;;3.16;68.72
77739;BME280;66904;59.926;30.404;2023-12-20T15:30:57;99117.22;;;3.23;69.31
77739;BME280;66904;59.926;30.404;2023-12-20T15:36:08;99117.72;;;3.28;69.02
77739;BME280;66904;59.926;30.404;2023-12-20T15:41:20;99124.75;;;3.28;68.61
77739;BME280;66904;59.926;30.404;2023-12-20T15:46:31;99127.56;;;3.25;68.89
77739;BME280;66904;59.926;30.404;2023-12-20T15:51:42;99140.03;;;3.21;68.71
77739;BME280;66904;59.926;30.404;2023-12-20T15:56:53;99141.78;;;3.21;68.48
77739;BME280;66904;59.926;30.404;2023-12-20T16:02:04;99142.00;;;3.18;68.46
77739;BME280;66904;59.926;30.404;2023-12-20T16:07:15;99160.06;;;3.21;69.19
77739;BME280;66904;59.926;30.404;2023-12-20T16:12:25;99170.84;;;3.16;69.06
77739;BME280;66904;59.926;30.404;2023-12-20T16:17:36;99171.69;;;3.17;68.84
77739;BME280;66904;59.926;30.404;2023-12-20T16:22:47;99177.53;;;3.20;68.85
77739;BME280;66904;59.926;30.404;2023-12-20T16:27:58;99187.75;;;3.23;69.66
77739;BME280;66904;59.926;30.404;2023-12-20T16:33:09;99191.44;;;3.21;68.84
77739;BME280;66904;59.926;30.404;2023-12-20T16:38:20;99194.47;;;3.15;69.00
77739;BME280;66904;59.926;30.404;2023-12-20T16:43:30;99191.22;;;3.11;69.34
77739;BME280;66904;59.926;30.404;2023-12-20T16:48:41;99186.22;;;3.08;69.24
77739;BME280;66904;59.926;30.404;2023-12-20T16:53:52;99195.06;;;3.05;69.11
77739;BME280;66904;59.926;30.404;2023-12-20T16:59:04;99193.63;;;3.01;68.81
77739;BME280;66904;59.926;30.404;2023-12-20T17:04:15;99205.09;;;2.99;69.51
77739;BME280;66904;59.926;30.404;2023-12-20T17:09:25;99200.63;;;3.01;69.34
77739;BME280;66904;59.926;30.404;2023-12-20T17:14:37;99201.47;;;3.01;69.26
77739;BME280;66904;59.926;30.404;2023-12-20T17:19:48;99207.00;;;3.09;69.49
77739;BME280;66904;59.926;30.404;2023-12-20T17:25:00;99216.72;;;3.07;69.39
77739;BME280;66904;59.926;30.404;2023-12-20T17:30:11;99209.38;;;2.87;69.49
77739;BME280;66904;59.926;30.404;2023-12-20T17:35:22;99212.28;;;2.83;69.63
77739;BME280;66904;59.926;30.404;2023-12-20T17:40:33;99209.16;;;2.78;69.22
77739;BME280;66904;59.926;30.404;2023-12-20T17:45:46;99221.38;;;2.77;69.62
77739;BME280;66904;59.926;30.404;2023-12-20T17:50:57;99218.75;;;2.77;69.23
77739;BME280;66904;59.926;30.404;2023-12-20T17:56:09;99224.91;;;2.76;69.88
77739;BME280;66904;59.926;30.404;2023-12-20T18:01:19;99224.47;;;2.70;69.66
77739;BME280;66904;59.926;30.404;2023-12-20T18:06:30;99228.88;;;2.69;69.56
77739;BME280;66904;59.926;30.404;2023-12-20T18:11:41;99237.22;;;2.62;69.25
77739;BME280;66904;59.926;30.404;2023-12-20T18:16:52;99225.59;;;2.53;69.76
77739;BME280;66904;59.926;30.404;2023-12-20T18:22:03;99225.72;;;2.51;69.53
77739;BME280;66904;59.926;30.404;2023-12-20T18:27:14;99218.25;;;2.45;70.22
77739;BME280;66904;59.926;30.404;2023-12-20T18:32:26;99214.06;;;2.43;70.23
77739;BME280;66904;59.926;30.404;2023-12-20T18:37:37;99205.59;;;2.39;69.63
77739;BME280;66904;59.926;30.404;2023-12-20T18:42:49;99208.41;;;2.36;70.07
77739;BME280;66904;59.926;30.404;2023-12-20T18:48:00;99199.16;;;2.45;70.07
77739;BME280;66904;59.926;30.404;2023-12-20T18:53:11;99213.66;;;2.49;69.43
77739;BME280;66904;59.926;30.404;2023-12-20T18:58:22;99213.81;;;2.60;69.51
77739;BME280;66904;59.926;30.404;2023-12-20T19:03:34;99221.47;;;2.76;69.79
77739;BME280;66904;59.926;30.404;2023-12-20T19:08:45;99215.59;;;2.72;69.51
77739;BME280;66904;59.926;30.404;2023-12-20T19:14:01;99231.88;;;2.63;68.88
77739;BME280;66904;59.926;30.404;2023-12-20T19:19:12;99240.97;;;2.57;69.78
77739;BME280;66904;59.926;30.404;2023-12-20T19:24:23;99220.50;;;2.64;69.15
77739;BME280;66904;59.926;30.404;2023-12-20T19:29:34;99236.59;;;2.58;69.80
77739;BME280;66904;59.926;30.404;2023-12-20T19:34:45;99241.72;;;2.45;69.35
77739;BME280;66904;59.926;30.404;2023-12-20T19:39:56;99248.75;;;2.45;69.29
77739;BME280;66904;59.926;30.404;2023-12-20T19:45:07;99249.97;;;2.39;69.79
77739;BME280;66904;59.926;30.404;2023-12-20T19:50:20;99245.44;;;2.29;69.07
77739;BME280;66904;59.926;30.404;2023-12-20T19:55:31;99237.81;;;2.26;69.69
77739;BME280;66904;59.926;30.404;2023-12-20T20:00:45;99249.25;;;2.37;70.11
77739;BME280;66904;59.926;30.404;2023-12-20T20:05:55;99251.66;;;2.40;69.37
77739;BME280;66904;59.926;30.404;2023-12-20T20:11:06;99251.94;;;2.36;70.01
77739;BME280;66904;59.926;30.404;2023-12-20T20:16:20;99245.16;;;2.33;70.00
77739;BME280;66904;59.926;30.404;2023-12-20T20:21:30;99237.44;;;2.32;69.34
77739;BME280;66904;59.926;30.404;2023-12-20T20:26:41;99251.44;;;2.43;69.57
77739;BME280;66904;59.926;30.404;2023-12-20T20:31:52;99245.06;;;2.35;69.78
77739;BME280;66904;59.926;30.404;2023-12-20T20:37:03;99245.97;;;2.34;69.80
77739;BME280;66904;59.926;30.404;2023-12-20T20:42:14;99252.25;;;2.31;70.01
77739;BME280;66904;59.926;30.404;2023-12-20T20:47:24;99247.66;;;2.35;70.05
77739;BME280;66904;59.926;30.404;2023-12-20T20:52:35;99254.53;;;2.36;69.09
77739;BME280;66904;59.926;30.404;2023-12-20T20:57:46;99257.38;;;2.45;69.77
77739;BME280;66904;59.926;30.404;2023-12-20T21:03:00;99254.41;;;2.51;69.54
77739;BME280;66904;59.926;30.404;2023-12-20T21:08:10;99249.63;;;2.58;69.68
77739;BME280;66904;59.926;30.404;2023-12-20T21:13:21;99246.50;;;2.66;69.63
77739;BME280;66904;59.926;30.404;2023-12-20T21:18:34;99238.38;;;2.70;69.66
77739;BME280;66904;59.926;30.404;2023-12-20T21:23:45;99241.00;;;2.70;69.09
77739;BME280;66904;59.926;30.404;2023-12-20T21:28:56;99238.47;;;2.69;69.77
77739;BME280;66904;59.926;30.404;2023-12-20T21:34:07;99245.84;;;2.62;69.14
77739;BME280;66904;59.926;30.404;2023-12-20T21:39:18;99251.59;;;2.54;69.61
77739;BME280;66904;59.926;30.404;2023-12-20T21:44:31;99249.41;;;2.48;69.91
77739;BME280;66904;59.926;30.404;2023-12-20T21:49:42;99243.13;;;2.51;70.41
77739;BME280;66904;59.926;30.404;2023-12-20T21:54:53;99235.94;;;2.54;69.68
77739;BME280;66904;59.926;30.404;2023-12-20T22:00:05;99227.50;;;2.64;70.26
77739;BME280;66904;59.926;30.404;2023-12-20T22:05:17;99218.13;;;2.74;69.86
77739;BME280;66904;59.926;30.404;2023-12-20T22:10:28;99222.22;;;2.78;69.59
77739;BME280;66904;59.926;30.404;2023-12-20T22:15:40;99212.19;;;2.72;69.98
77739;BME280;66904;59.926;30.404;2023-12-20T22:20:52;99210.16;;;2.63;70.18
77739;BME280;66904;59.926;30.404;2023-12-20T22:26:03;99210.84;;;2.52;69.59
77739;BME280;66904;59.926;30.404;2023-12-20T22:31:16;99199.25;;;2.43;70.38
77739;BME280;66904;59.926;30.404;2023-12-20T22:36:27;99197.13;;;2.36;69.70
77739;BME280;66904;59.926;30.404;2023-12-20T22:41:39;99190.97;;;2.24;70.65
77739;BME280;66904;59.926;30.404;2023-12-20T22:46:54;99182.69;;;2.18;69.66
77739;BME280;66904;59.926;30.404;2023-12-20T22:52:05;99184.94;;;2.09;70.24
77739;BME280;66904;59.926;30.404;2023-12-20T22:57:16;99172.75;;;2.10;70.43
77739;BME280;66904;59.926;30.404;2023-12-20T23:02:27;99165.13;;;2.07;70.48
77739;BME280;66904;59.926;30.404;2023-12-20T23:07:38;99156.38;;;2.08;70.75
77739;BME280;66904;59.926;30.404;2023-12-20T23:12:49;99156.44;;;2.06;70.89
77739;BME280;66904;59.926;30.404;2023-12-20T23:18:00;99149.38;;;2.08;70.42
77739;BME280;66904;59.926;30.404;2023-12-20T23:23:10;99144.47;;;2.04;71.03
77739;BME280;66904;59.926;30.404;2023-12-20T23:28:21;99135.16;;;2.00;70.60
77739;BME280;66904;59.926;30.404;2023-12-20T23:33:32;99119.50;;;2.00;71.13
77739;BME280;66904;59.926;30.404;2023-12-20T23:38:43;99121.59;;;1.95;70.92
77739;BME280;66904;59.926;30.404;2023-12-20T23:43:54;99125.31;;;1.91;71.21
77739;BME280;66904;59.926;30.404;2023-12-20T23:49:05;99111.44;;;1.90;71.36
77739;BME280;66904;59.926;30.404;2023-12-20T23:54:16;99113.53;;;1.85;70.96
77739;BME280;66904;59.926;30.404;2023-12-20T23:59:27;99100.28;;;1.88;71.30
